Weather reports worldwide

Advertisment
Vinaroz, Spain (8239): temperature & dewpoint: 04.04.2020 20:00:00 - 10.04.2020 20:00:00 (CEST)Vinaroz, Spain (8239): wind speed & gusts: 04.04.2020 20:00:00 - 10.04.2020 20:00:00 (CEST)Vinaroz, Spain (8239): wind direction: 04.04.2020 20:00:00 - 10.04.2020 20:00:00 (CEST)Vinaroz, Spain (8239): precipitation: 04.04.2020 20:00:00 - 10.04.2020 20:00:00 (CEST)
Date & Time tt [°C] td [°C] ff [km/h] ff [kn] fx [km/h] fx [kn] dd rr [mm]
10.04.2020 20:00:00 - - - - - - - -
10.04.2020 19:00:00 15,9 8,9 7 4 14 8 SSW 0,0
10.04.2020 18:00:00 16,7 8,2 9 5 17 9 SSW 0,0
10.04.2020 17:00:00 17,6 9,0 9 5 17 9 S 0,0
10.04.2020 16:00:00 18,1 8,4 10 5 22 12 S 0,0
10.04.2020 15:00:00 18,7 8,9 10 5 18 10 S 0,0
10.04.2020 14:00:00 18,7 8,1 9 5 19 10 S -
10.04.2020 13:00:00 18,6 9,9 9 5 17 9 SSE 0,0
10.04.2020 12:00:00 17,5 9,4 6 4 13 7 S 0,0
10.04.2020 11:00:00 16,5 7,2 4 2 8 5 S 0,0
10.04.2020 10:00:00 15,0 7,6 1 1 5 3 NW 0,0
10.04.2020 09:00:00 13,0 9,1 1 1 6 4 NNE 0,0
10.04.2020 08:00:00 11,7 8,0 6 3 9 5 NE -
10.04.2020 07:00:00 11,4 7,5 4 2 7 4 NE 0,0
10.04.2020 06:00:00 11,1 7,6 3 2 8 4 NNE 0,0
10.04.2020 05:00:00 11,3 7,8 3 2 8 4 NW 0,0
10.04.2020 04:00:00 11,6 8,1 3 2 7 4 NE 0,0
10.04.2020 03:00:00 11,8 8,3 4 2 7 4 NE 0,0
10.04.2020 02:00:00 11,7 8,2 3 2 7 4 N -
10.04.2020 01:00:00 11,8 8,3 2 1 8 4 N 0,0
10.04.2020 00:00:00 12,0 8,5 3 2 6 3 NNW 0,0
09.04.2020 23:00:00 12,9 9,4 0 0 5 3 SSW 0,0
09.04.2020 22:00:00 13,1 9,2 3 2 11 6 S 0,0
09.04.2020 21:00:00 13,9 9,4 7 4 13 7 S 0,0
09.04.2020 20:00:00 15,4 9,3 9 5 20 11 SSE -
09.04.2020 19:00:00 16,9 6,7 11 6 25 14 S 0,0
09.04.2020 18:00:00 18,1 6,0 16 8 27 14 S 0,0
09.04.2020 17:00:00 18,9 5,4 16 8 27 14 S 0,0
09.04.2020 16:00:00 19,4 5,8 14 8 26 14 S 0,0
09.04.2020 15:00:00 19,4 5,1 14 7 25 14 S 0,0
09.04.2020 14:00:00 19,1 6,3 12 7 25 14 S -
09.04.2020 13:00:00 19,6 7,4 11 6 21 11 S 0,0
09.04.2020 12:00:00 18,9 7,4 8 4 21 11 S 0,0
09.04.2020 11:00:00 17,3 5,9 7 4 14 7 S 0,0
09.04.2020 10:00:00 16,9 5,8 2 1 7 4 ENE 0,0
09.04.2020 09:00:00 12,9 6,9 3 2 11 6 N 0,0
09.04.2020 08:00:00 8,0 4,8 5 3 10 6 N -
09.04.2020 07:00:00 8,5 5,3 4 2 10 5 NNW 0,0
09.04.2020 06:00:00 9,7 6,4 5 3 8 5 N 0,0
09.04.2020 05:00:00 9,8 6,5 5 3 7 4 NNE 0,0
09.04.2020 04:00:00 8,7 5,5 4 2 6 3 NE 0,0
09.04.2020 03:00:00 9,1 5,8 4 2 6 3 NE 0,0
09.04.2020 02:00:00 9,9 6,4 4 2 6 4 NNE -
09.04.2020 01:00:00 10,5 7,0 3 2 5 3 N 0,0
09.04.2020 00:00:00 11,7 7,8 1 0 5 3 NNE 0,0
08.04.2020 23:00:00 13,7 8,3 0 0 3 2 SE 0,0
08.04.2020 22:00:00 14,4 8,8 2 1 5 3 SSE 0,0
08.04.2020 21:00:00 14,3 7,6 4 2 11 6 S 0,0
08.04.2020 20:00:00 15,1 5,9 5 3 13 7 S -
08.04.2020 19:00:00 16,0 5,3 8 5 17 9 S 0,0
08.04.2020 18:00:00 17,7 6,3 9 5 17 9 S 0,0
08.04.2020 17:00:00 16,8 4,8 10 5 20 11 S 0,0
08.04.2020 16:00:00 17,9 6,5 11 6 23 12 S 0,0
08.04.2020 15:00:00 17,4 6,6 11 6 22 12 S 0,0
08.04.2020 14:00:00 17,7 6,6 14 8 24 13 SE -
08.04.2020 13:00:00 19,2 7,6 11 6 22 12 SE 0,0
08.04.2020 12:00:00 17,3 6,5 9 5 16 9 SSE 0,0
08.04.2020 11:00:00 16,5 4,6 4 2 11 6 WSW 0,0
08.04.2020 10:00:00 16,0 4,1 3 2 11 6 W 0,0
08.04.2020 09:00:00 13,5 7,5 3 2 5 3 NNE 0,0
08.04.2020 08:00:00 10,2 6,9 3 2 7 4 N -
08.04.2020 07:00:00 9,9 6,8 3 2 8 4 NNE 0,0
08.04.2020 06:00:00 9,1 6,0 3 2 8 4 NNE 0,0
08.04.2020 05:00:00 9,5 6,4 4 2 11 6 N 0,0
08.04.2020 04:00:00 9,4 6,3 5 3 8 4 N 0,0
08.04.2020 03:00:00 8,7 5,6 4 2 7 4 N 0,0
08.04.2020 02:00:00 9,6 6,5 5 3 8 4 NNE -
08.04.2020 01:00:00 10,3 7,0 4 2 6 3 NNE 0,0
08.04.2020 00:00:00 11,0 7,5 1 1 6 3 NNE 0,0
07.04.2020 23:00:00 11,6 8,1 5 3 6 3 NW 0,0
07.04.2020 22:00:00 13,4 9,3 1 1 5 3 S 0,0
07.04.2020 21:00:00 13,6 9,5 1 0 9 5 S 0,0
07.04.2020 20:00:00 14,5 8,9 6 3 20 11 SSW -
07.04.2020 19:00:00 15,1 8,1 11 6 19 11 S 0,0
07.04.2020 18:00:00 16,7 5,7 13 7 21 12 S 0,0
07.04.2020 17:00:00 18,0 6,2 12 7 22 12 S 0,0
07.04.2020 16:00:00 18,6 6,5 9 5 18 10 S 0,0
07.04.2020 15:00:00 17,3 4,3 6 3 18 10 SSW 0,2
07.04.2020 14:00:00 14,8 10,2 10 5 20 11 SSW -
07.04.2020 13:00:00 16,7 9,2 10 5 51 28 S 0,0
07.04.2020 12:00:00 18,4 9,2 9 5 18 10 S 0,0
07.04.2020 11:00:00 15,6 7,6 8 5 17 9 WSW 0,0
07.04.2020 10:00:00 14,7 5,5 4 2 11 6 NW 0,0
07.04.2020 09:00:00 12,7 8,8 4 2 7 4 NNW 0,0
07.04.2020 08:00:00 11,9 8,4 3 2 11 6 NNE -
07.04.2020 07:00:00 11,8 8,3 5 3 8 5 NNW 0,0
07.04.2020 06:00:00 12,0 8,5 1 1 4 2 NE 0,0
07.04.2020 05:00:00 11,7 8,4 2 1 6 3 N 0,0
07.04.2020 04:00:00 12,1 8,6 1 1 5 3 ENE 0,0
07.04.2020 03:00:00 12,0 8,5 3 2 5 3 NNE 0,0
07.04.2020 02:00:00 12,3 8,8 2 1 4 2 NE -
07.04.2020 01:00:00 12,2 8,7 0 0 0 0 N 0,0
07.04.2020 00:00:00 12,3 8,8 0 0 4 2 N 0,0
06.04.2020 23:00:00 12,6 8,9 4 2 8 4 W 0,0
06.04.2020 22:00:00 13,3 9,4 6 3 8 4 SSW 0,0
06.04.2020 21:00:00 14,1 9,3 6 3 15 8 SSW 0,0
06.04.2020 20:00:00 14,6 8,6 9 5 18 10 SSW -
06.04.2020 19:00:00 15,1 7,9 9 5 20 11 S 0,0
06.04.2020 18:00:00 15,8 6,8 13 7 21 11 S 0,0
06.04.2020 17:00:00 16,3 6,2 12 6 23 13 S 0,0
06.04.2020 16:00:00 17,2 6,1 12 6 22 12 S 0,0
06.04.2020 15:00:00 16,9 6,7 10 6 21 11 S 0,0
06.04.2020 14:00:00 17,4 6,9 13 7 24 13 SSE -
06.04.2020 13:00:00 16,9 5,8 12 7 23 12 S 0,0
06.04.2020 12:00:00 17,7 4,3 11 6 24 13 SSE 0,0
06.04.2020 11:00:00 16,9 7,0 6 3 14 8 SSE 0,0
06.04.2020 10:00:00 14,5 7,8 1 0 4 2 WSW 0,0
06.04.2020 09:00:00 12,3 7,4 3 1 6 4 N 0,0
06.04.2020 08:00:00 8,7 5,5 5 3 7 4 NNW -
06.04.2020 07:00:00 8,8 5,6 5 3 7 4 NNW 0,0
06.04.2020 06:00:00 8,5 5,3 5 3 7 4 NNW 0,0
06.04.2020 05:00:00 8,2 5,0 5 3 9 5 N 0,0
06.04.2020 04:00:00 8,6 5,2 5 3 7 4 NW 0,0
06.04.2020 03:00:00 8,7 5,3 4 2 6 4 NNW 0,0
06.04.2020 02:00:00 9,2 5,8 4 2 6 3 NNW -
06.04.2020 01:00:00 9,3 5,9 3 2 7 4 N 0,0
06.04.2020 00:00:00 9,8 6,3 1 1 4 2 W 0,0
05.04.2020 23:00:00 10,7 7,2 0 0 5 3 SE 0,0
05.04.2020 22:00:00 11,6 7,9 4 2 10 5 SE 0,0
05.04.2020 21:00:00 12,8 8,3 6 4 14 7 SSE 0,0
05.04.2020 20:00:00 14,2 7,3 8 4 17 9 SSE -
05.04.2020 19:00:00 14,6 7,4 11 6 19 10 SSE 0,0
05.04.2020 18:00:00 15,4 6,9 13 7 25 13 S 0,0
05.04.2020 17:00:00 15,9 5,5 13 7 23 13 SSW 0,0
05.04.2020 16:00:00 16,8 5,8 13 7 26 14 SSW 0,0
05.04.2020 15:00:00 17,6 6,2 13 7 25 13 S 0,0
05.04.2020 14:00:00 17,1 6,0 10 6 23 12 S -
05.04.2020 13:00:00 17,1 5,7 11 6 23 12 S 0,0
05.04.2020 12:00:00 15,9 5,2 8 5 16 8 SSW 0,0
05.04.2020 11:00:00 15,2 5,4 6 3 12 6 SSW 0,0
05.04.2020 10:00:00 13,7 7,0 5 3 8 4 W 0,0
05.04.2020 09:00:00 10,6 4,7 2 1 9 5 N 0,0
05.04.2020 08:00:00 7,7 3,8 6 3 10 5 N -
05.04.2020 07:00:00 7,0 3,1 5 3 10 6 NE 0,0
05.04.2020 06:00:00 6,8 3,6 5 3 9 5 NNE 0,0
05.04.2020 05:00:00 6,0 3,0 5 3 10 5 N 0,0
05.04.2020 04:00:00 7,0 4,0 5 3 8 4 NNE 0,0
05.04.2020 03:00:00 6,6 3,6 5 3 9 5 NNE 0,0
05.04.2020 02:00:00 8,0 4,9 6 3 9 5 N -
05.04.2020 01:00:00 8,2 5,0 6 3 8 4 N 0,0
05.04.2020 00:00:00 8,2 5,0 4 2 7 4 NNW 0,0
04.04.2020 23:00:00 9,6 6,1 3 2 8 5 NW 0,0
04.04.2020 22:00:00 10,9 7,4 4 2 9 5 SE 0,0
04.04.2020 21:00:00 11,8 8,1 4 2 16 9 S 0,0
04.04.2020 20:00:00 14,0 7,1 11 6 21 12 S -

tt = temperature
td = dewpoint
ff = wind speed
fx = gusts
dd = wind direction
rr = precipitation

Next stations